Current Conditions
Clear
Conditions



Pressure
30.05 (inHG) - 1017.62 (mb)
Visibility

9.9 (mimiles) - 16.0 (km)
   Temperature
61  °F
16°C
30  °F
Dewpoint
31  %
 Humidity
   Wind Speed
5  mph
4  kts
8  km/h
2.2  m/s
   Wind Direction
 280°
Due West
   Airport Data
KPDK
Location DeKalb Peachtree Airport 20 mi (32.18 km)
Metar :KPDK 232353Z 28004KT 10SM CLR 16/M01 A3005 RMK AO2 SLP179 T01611006 10200 20161 53012
Tue 23rd February 19:53 pm
   Raw Metar Info
Raw METAR is the most common format in the world for the transmission of observational weather data. It is highly standardized through the International Civil Aviation Organization (ICAO), which allows it to be understood throughout most of the world.
   API Info
Data Provided by
https://www.checkwx.com/weather/KPDK
   © Info
CSS/SVG/PHP scripts were developed by weather34.com for use in the weather34 template © 2015-2021

Guide Info provided by Metar-Wikipedia